Time;durP1;ratioP1;P1;durP2;ratioP2;P2;SDS_P1;SDS_P2;PMS_P1;PMS_P2;Temp;Humidity;BMP_temperature;BMP_pressure;BME280_temperature;BME280_humidity;BME280_pressure;Samples;Min_cycle;Max_cycle;Signal;HPM_P1;HPM_P2
2022/12/01 00:02:06;;;;;;;62.90;35.70;;;6.90;99.90;;;;;;5023020;28;20175;-80
2022/12/01 00:04:31;;;;;;;60.38;37.58;;;6.90;99.90;;;;;;5019790;28;20053;-80
2022/12/01 00:06:57;;;;;;;68.82;36.53;;;6.90;99.90;;;;;;5021718;28;20033;-80
2022/12/01 00:12:07;;;;;;;65.57;36.20;;;6.90;99.90;;;;;;5018375;28;20087;-81
2022/12/01 00:14:33;;;;;;;58.78;36.13;;;6.90;99.90;;;;;;5024269;28;20789;-80
2022/12/01 00:16:59;;;;;;;59.97;35.75;;;6.90;99.90;;;;;;5014333;28;20045;-81
2022/12/01 00:19:25;;;;;;;61.20;34.40;;;6.90;99.90;;;;;;5023026;28;20057;-80
2022/12/01 00:21:51;;;;;;;59.55;36.05;;;7.10;99.90;;;;;;5026779;28;20172;-80
2022/12/01 00:24:17;;;;;;;61.78;34.80;;;6.90;99.90;;;;;;5030220;28;20082;-81
2022/12/01 00:26:43;;;;;;;54.63;33.10;;;6.90;99.90;;;;;;5023734;28;21121;-80
2022/12/01 00:29:08;;;;;;;63.40;36.08;;;6.90;99.90;;;;;;5028823;28;20056;-81
2022/12/01 00:31:34;;;;;;;62.65;36.55;;;6.90;99.90;;;;;;5020073;28;20053;-80
2022/12/01 00:34:00;;;;;;;68.38;37.83;;;6.90;99.90;;;;;;5027225;28;20118;-81
2022/12/01 00:36:26;;;;;;;59.30;39.95;;;6.90;99.90;;;;;;5026903;28;20327;-81
2022/12/01 00:38:54;;;;;;;63.55;34.45;;;6.90;99.90;;;;;;5026158;28;20052;-80
2022/12/01 00:41:20;;;;;;;60.95;34.05;;;7.00;99.90;;;;;;5026728;28;20123;-80
2022/12/01 00:43:46;;;;;;;64.85;40.78;;;7.00;99.90;;;;;;5007591;28;20565;-80
2022/12/01 00:46:12;;;;;;;65.55;37.60;;;7.00;99.90;;;;;;5019085;28;20045;-81
2022/12/01 00:48:37;;;;;;;65.25;37.90;;;7.00;99.90;;;;;;5018800;28;20132;-80
2022/12/01 00:51:03;;;;;;;62.13;38.53;;;6.90;99.90;;;;;;5021737;28;20060;-80
2022/12/01 00:53:29;;;;;;;64.40;36.15;;;6.90;99.90;;;;;;5018888;28;20045;-80
2022/12/01 00:55:55;;;;;;;68.93;38.65;;;7.30;99.90;;;;;;5024939;28;20096;-81
2022/12/01 00:58:22;;;;;;;71.10;41.72;;;6.90;99.90;;;;;;5022460;28;20081;-81
2022/12/01 01:00:48;;;;;;;63.95;37.35;;;6.80;99.90;;;;;;5019365;28;20939;-80
2022/12/01 01:03:14;;;;;;;59.22;35.17;;;6.00;99.90;;;;;;5014531;28;20049;-81
2022/12/01 01:05:42;;;;;;;67.30;38.10;;;6.80;99.90;;;;;;5019537;28;20045;-82
2022/12/01 01:08:13;;;;;;;68.30;41.63;;;6.80;99.90;;;;;;5017442;28;20063;-81
2022/12/01 01:10:45;;;;;;;60.95;35.33;;;6.80;99.90;;;;;;5012226;28;20136;-81
2022/12/01 01:13:12;;;;;;;66.75;35.85;;;6.80;99.90;;;;;;5018732;28;20085;-81
2022/12/01 01:15:38;;;;;;;59.60;35.80;;;6.90;99.90;;;;;;5018077;28;20092;-82
2022/12/01 01:18:05;;;;;;;58.22;36.70;;;6.90;99.90;;;;;;5020306;28;20060;-80
2022/12/01 01:20:32;;;;;;;74.22;38.05;;;6.80;99.90;;;;;;5020194;28;20049;-81
2022/12/01 01:22:57;;;;;;;64.85;36.78;;;6.80;99.90;;;;;;5027964;28;20057;-81
2022/12/01 01:25:24;;;;;;;71.07;39.38;;;7.10;99.90;;;;;;5015912;28;20053;-82
2022/12/01 01:27:50;;;;;;;65.72;38.05;;;6.70;99.90;;;;;;5009364;28;20098;-79
2022/12/01 01:30:16;;;;;;;63.28;36.97;;;6.80;99.90;;;;;;5019380;28;20141;-79
2022/12/01 01:32:42;;;;;;;65.30;38.88;;;6.80;99.90;;;;;;5016918;28;20685;-79
2022/12/01 01:35:08;;;;;;;66.13;37.80;;;7.30;99.90;;;;;;5027368;28;20144;-78
2022/12/01 01:37:33;;;;;;;55.90;33.38;;;6.80;99.90;;;;;;5018755;28;20964;-79
2022/12/01 01:39:59;;;;;;;60.60;38.22;;;7.10;99.90;;;;;;5017978;28;20053;-78
2022/12/01 01:42:24;;;;;;;62.20;36.75;;;6.80;99.90;;;;;;5018467;28;20045;-78
2022/12/01 01:44:57;;;;;;;72.43;39.90;;;6.70;99.90;;;;;;5019547;28;20052;-78
2022/12/01 01:47:36;;;;;;;67.63;39.75;;;6.70;99.90;;;;;;5021294;28;20057;-79
2022/12/01 01:50:09;;;;;;;66.28;39.78;;;7.00;99.90;;;;;;4998049;28;20048;-78
2022/12/01 01:52:41;;;;;;;61.42;36.53;;;6.60;99.90;;;;;;5019018;28;20049;-78
2022/12/01 01:55:08;;;;;;;72.32;39.95;;;6.70;99.90;;;;;;5018206;28;20128;-79
2022/12/01 01:57:34;;;;;;;72.18;40.38;;;7.00;99.90;;;;;;5010218;28;20885;-78
2022/12/01 02:00:12;;;;;;;66.07;36.28;;;6.70;99.90;;;;;;5020696;28;20126;-78
2022/12/01 02:02:43;;;;;;;76.40;41.83;;;6.70;99.90;;;;;;5019200;28;20703;-79
2022/12/01 02:05:15;;;;;;;71.55;39.58;;;6.70;99.90;;;;;;5019545;28;20045;-79
2022/12/01 02:07:41;;;;;;;63.92;36.53;;;6.70;99.90;;;;;;5018373;28;20088;-79
2022/12/01 02:10:09;;;;;;;69.93;40.33;;;6.70;99.90;;;;;;4999019;28;20051;-79
2022/12/01 02:12:54;;;;;;;73.78;38.70;;;6.70;99.90;;;;;;5019415;28;20061;-79
2022/12/01 02:15:31;;;;;;;66.82;39.38;;;6.70;99.90;;;;;;5032984;28;20068;-79
2022/12/01 02:18:08;;;;;;;58.15;35.83;;;6.80;99.90;;;;;;5020650;28;20383;-79
2022/12/01 02:20:54;;;;;;;65.28;41.42;;;6.70;99.90;;;;;;5019447;28;20137;-79
2022/12/01 02:23:29;;;;;;;68.40;39.85;;;6.70;99.90;;;;;;5025165;28;20071;-79
2022/12/01 02:26:19;;;;;;;71.53;40.03;;;6.80;99.90;;;;;;5016930;28;20131;-78
2022/12/01 02:29:09;;;;;;;62.67;39.38;;;6.80;99.90;;;;;;5015051;28;20116;-79
2022/12/01 02:31:59;;;;;;;73.55;41.25;;;6.70;99.90;;;;;;4998967;28;20056;-80
2022/12/01 02:34:45;;;;;;;62.60;36.33;;;6.80;99.90;;;;;;5015654;28;20071;-80
2022/12/01 02:37:28;;;;;;;73.30;40.88;;;6.70;99.90;;;;;;5010979;28;20034;-79
2022/12/01 02:40:09;;;;;;;69.35;39.28;;;6.70;99.90;;;;;;5007235;28;20425;-80
2022/12/01 02:42:48;;;;;;;68.93;38.22;;;6.80;99.90;;;;;;5014014;28;20057;-79
2022/12/01 02:45:33;;;;;;;68.10;38.28;;;6.80;99.90;;;;;;5017962;28;20056;-80
2022/12/01 02:48:01;;;;;;;63.88;36.63;;;6.80;99.90;;;;;;5019905;28;20045;-79
2022/12/01 02:50:30;;;;;;;70.13;41.33;;;6.80;99.90;;;;;;5016369;28;20164;-80
2022/12/01 02:52:56;;;;;;;72.35;42.00;;;6.80;99.90;;;;;;5018378;28;20053;-80
2022/12/01 02:55:22;;;;;;;66.93;40.00;;;6.70;99.90;;;;;;5016310;28;20079;-80
2022/12/01 02:57:47;;;;;;;71.47;39.47;;;7.20;99.90;;;;;;5014580;28;20714;-79
2022/12/01 03:00:14;;;;;;;71.82;41.35;;;6.70;99.90;;;;;;5011584;28;20104;-80
2022/12/01 03:02:57;;;;;;;76.40;43.33;;;6.80;99.90;;;;;;5013330;28;20107;-80
2022/12/01 03:05:43;;;;;;;72.72;41.90;;;6.80;99.90;;;;;;5015447;28;20108;-80
2022/12/01 03:08:29;;;;;;;66.55;35.75;;;6.80;99.90;;;;;;5015165;28;20130;-79
2022/12/01 03:10:57;;;;;;;69.05;41.63;;;6.80;99.90;;;;;;5017192;28;20065;-80
2022/12/01 03:13:42;;;;;;;69.28;39.00;;;6.90;99.90;;;;;;5016991;28;21774;-80
2022/12/01 03:16:32;;;;;;;71.30;38.80;;;6.90;99.90;;;;;;5014875;28;20501;-79
2022/12/01 03:19:23;;;;;;;65.55;37.67;;;6.90;99.90;;;;;;5011754;28;20045;-79
2022/12/01 03:21:48;;;;;;;69.18;34.83;;;6.90;99.90;;;;;;5018952;28;20062;-79
2022/12/01 03:24:18;;;;;;;69.55;38.30;;;7.00;99.90;;;;;;5011984;28;20064;-80
2022/12/01 03:26:48;;;;;;;73.25;39.40;;;6.90;99.90;;;;;;5016318;28;20045;-79
2022/12/01 03:29:20;;;;;;;68.43;39.25;;;6.90;99.90;;;;;;5014145;28;20461;-79
2022/12/01 03:31:57;;;;;;;64.60;37.72;;;7.00;99.90;;;;;;5018754;28;20045;-80
2022/12/01 03:34:28;;;;;;;69.18;38.90;;;7.00;99.90;;;;;;5014783;28;20045;-79
2022/12/01 03:37:03;;;;;;;70.07;38.88;;;7.00;99.90;;;;;;5017228;28;20041;-79
2022/12/01 03:39:32;;;;;;;73.00;41.20;;;6.90;99.90;;;;;;5016142;28;20045;-79
2022/12/01 03:42:14;;;;;;;70.75;41.15;;;7.20;99.90;;;;;;5016238;28;20057;-79
2022/12/01 03:44:47;;;;;;;73.57;39.97;;;7.00;99.90;;;;;;5017299;28;20038;-79
2022/12/01 03:47:20;;;;;;;55.80;35.05;;;6.90;99.90;;;;;;5009438;28;20042;-79
2022/12/01 03:49:48;;;;;;;;;;;6.90;99.90;;;;;;5018034;28;20772;-80
2022/12/01 03:52:39;;;;;;;64.38;35.22;;;6.90;99.90;;;;;;5020103;28;20270;-80
2022/12/01 03:55:11;;;;;;;82.18;42.90;;;6.90;99.90;;;;;;5013545;28;20049;-80
2022/12/01 03:57:44;;;;;;;75.55;40.72;;;7.00;99.90;;;;;;5016582;28;20053;-79
2022/12/01 04:00:13;;;;;;;65.75;39.85;;;6.90;99.90;;;;;;5016383;28;20056;-79
2022/12/01 04:02:41;;;;;;;67.03;35.28;;;6.90;99.90;;;;;;5008432;28;20064;-79
2022/12/01 04:05:08;;;;;;;72.35;43.67;;;6.90;99.90;;;;;;5017122;28;20089;-80
2022/12/01 04:07:34;;;;;;;76.57;40.53;;;6.90;99.90;;;;;;5014098;28;20054;-80
2022/12/01 04:10:00;;;;;;;70.50;40.47;;;6.80;99.90;;;;;;5019600;28;20048;-79
2022/12/01 04:12:28;;;;;;;67.75;38.45;;;6.90;99.90;;;;;;5014131;28;20045;-80
2022/12/01 04:14:59;;;;;;;78.15;43.00;;;6.90;99.90;;;;;;5016156;28;20050;-80
2022/12/01 04:17:25;;;;;;;65.60;37.55;;;6.90;99.90;;;;;;5011397;28;20053;-79
2022/12/01 04:19:51;;;;;;;69.63;36.45;;;6.80;99.90;;;;;;5015030;28;20980;-80
2022/12/01 04:22:17;;;;;;;70.00;38.78;;;6.80;99.90;;;;;;5015737;28;20697;-79
2022/12/01 04:24:43;;;;;;;72.85;40.22;;;6.80;99.90;;;;;;5014869;28;20510;-80
2022/12/01 04:27:09;;;;;;;71.38;40.20;;;6.80;99.90;;;;;;5014298;28;20049;-79
2022/12/01 04:29:34;;;;;;;80.57;41.88;;;6.90;99.90;;;;;;5017399;28;20062;-80
2022/12/01 04:32:00;;;;;;;70.38;41.42;;;6.90;99.90;;;;;;5012745;28;20758;-80
2022/12/01 04:34:26;;;;;;;67.60;40.30;;;6.90;99.90;;;;;;5013036;28;20440;-80
2022/12/01 04:36:51;;;;;;;76.28;39.17;;;7.00;99.90;;;;;;5011444;28;20486;-79
2022/12/01 04:39:17;;;;;;;65.65;37.53;;;6.90;99.90;;;;;;5011415;28;20038;-79
2022/12/01 04:41:43;;;;;;;71.32;41.33;;;6.90;99.90;;;;;;5013974;28;20052;-79
2022/12/01 04:44:09;;;;;;;72.75;40.85;;;6.90;99.90;;;;;;5014166;28;20124;-80
2022/12/01 04:46:36;;;;;;;78.45;43.17;;;6.80;99.90;;;;;;5012431;28;20049;-80
2022/12/01 04:49:02;;;;;;;68.03;37.92;;;6.80;99.90;;;;;;5019767;28;20469;-78
2022/12/01 04:51:28;;;;;;;87.13;45.40;;;6.90;99.90;;;;;;5012817;28;20049;-79
2022/12/01 04:53:54;;;;;;;78.47;41.58;;;6.80;99.90;;;;;;5017703;28;20052;-80
2022/12/01 04:56:20;;;;;;;73.07;39.83;;;6.80;99.90;;;;;;5017296;28;20064;-79
2022/12/01 04:58:46;;;;;;;72.07;40.00;;;7.70;99.90;;;;;;5015910;28;20052;-80
2022/12/01 05:01:13;;;;;;;58.03;31.83;;;6.90;99.90;;;;;;5015456;28;20079;-80
2022/12/01 05:03:42;;;;;;;65.40;36.22;;;7.40;99.90;;;;;;5021362;28;20056;-79
2022/12/01 05:06:13;;;;;;;65.03;38.65;;;7.00;99.90;;;;;;5022361;28;20053;-79
2022/12/01 05:08:39;;;;;;;57.10;31.52;;;7.00;99.90;;;;;;5023056;28;20061;-79
2022/12/01 05:11:06;;;;;;;69.40;39.28;;;7.10;99.90;;;;;;5024897;28;20130;-80
2022/12/01 05:13:35;;;;;;;76.65;40.60;;;7.10;99.90;;;;;;5019543;28;20046;-80
2022/12/01 05:16:06;;;;;;;66.05;40.45;;;7.10;99.90;;;;;;5030975;28;20136;-80
2022/12/01 05:18:32;;;;;;;75.20;42.20;;;7.10;99.90;;;;;;5020556;28;20148;-79
2022/12/01 05:20:58;;;;;;;75.70;40.00;;;7.10;99.90;;;;;;5019251;28;20486;-79
2022/12/01 05:23:29;;;;;;;73.20;40.22;;;7.10;99.90;;;;;;5020589;28;20072;-79
2022/12/01 05:25:55;;;;;;;74.45;41.30;;;7.10;99.90;;;;;;5014991;28;20537;-80
2022/12/01 05:28:22;;;;;;;81.43;42.45;;;7.00;99.90;;;;;;5017442;28;20045;-80
2022/12/01 05:30:49;;;;;;;70.45;39.25;;;7.00;99.90;;;;;;5019726;28;20045;-79
2022/12/01 05:33:15;;;;;;;69.68;39.40;;;7.00;99.90;;;;;;5013887;28;20064;-80
2022/12/01 05:35:40;;;;;;;66.20;37.85;;;7.00;99.90;;;;;;5023246;28;20045;-80
2022/12/01 05:38:07;;;;;;;74.75;40.35;;;7.00;99.90;;;;;;5022866;28;20107;-80
2022/12/01 05:40:33;;;;;;;71.30;40.53;;;7.00;99.90;;;;;;5032760;28;20051;-80
2022/12/01 05:42:59;;;;;;;72.85;39.95;;;7.00;99.90;;;;;;5023980;28;20397;-79
2022/12/01 05:45:25;;;;;;;69.13;39.03;;;7.00;99.90;;;;;;5025144;28;20084;-79
2022/12/01 05:47:58;;;;;;;72.63;39.85;;;7.10;99.90;;;;;;5026551;28;20045;-79
2022/12/01 05:50:26;;;;;;;61.83;33.33;;;7.00;99.90;;;;;;5010739;28;20046;-79
2022/12/01 05:52:51;;;;;;;56.30;33.85;;;7.00;99.90;;;;;;5022495;28;20563;-79
2022/12/01 05:55:17;;;;;;;70.15;37.75;;;7.50;99.90;;;;;;5019209;28;20052;-80
2022/12/01 05:57:43;;;;;;;66.47;38.15;;;7.00;99.90;;;;;;5017878;28;20168;-80
2022/12/01 06:00:09;;;;;;;63.00;38.08;;;7.30;99.90;;;;;;5019357;28;20752;-79
2022/12/01 06:02:35;;;;;;;68.03;37.67;;;7.10;99.90;;;;;;5020315;28;20057;-80
2022/12/01 06:05:01;;;;;;;63.40;38.78;;;7.10;99.90;;;;;;5018524;28;20049;-80
2022/12/01 06:07:26;;;;;;;57.70;34.50;;;7.80;99.90;;;;;;5017955;28;20099;-79
2022/12/01 06:09:52;;;;;;;61.67;33.53;;;7.10;99.90;;;;;;5020231;28;20056;-80
2022/12/01 06:12:18;;;;;;;66.93;38.38;;;7.10;99.90;;;;;;5023290;28;20604;-80
2022/12/01 06:14:44;;;;;;;70.90;41.78;;;7.70;99.90;;;;;;5021748;28;20053;-80
2022/12/01 06:17:10;;;;;;;68.35;35.40;;;7.10;99.90;;;;;;5019368;28;20042;-79
2022/12/01 06:19:36;;;;;;;55.08;31.25;;;7.10;99.90;;;;;;5019479;28;20049;-81
2022/12/01 06:22:02;;;;;;;55.70;32.58;;;7.10;99.90;;;;;;5018687;28;20534;-80
2022/12/01 06:24:28;;;;;;;59.88;32.63;;;7.20;99.90;;;;;;5020030;28;20140;-80
2022/12/01 06:26:53;;;;;;;68.93;36.47;;;7.20;99.90;;;;;;5005801;28;20573;-80
2022/12/01 06:29:19;;;;;;;58.03;34.33;;;7.20;99.90;;;;;;5024071;28;20052;-80
2022/12/01 06:31:45;;;;;;;61.38;35.50;;;7.10;99.90;;;;;;5010128;28;20050;-79
2022/12/01 06:34:10;;;;;;;57.80;33.75;;;7.20;99.90;;;;;;5016021;28;20056;-79
2022/12/01 06:36:36;;;;;;;50.35;31.08;;;7.30;99.90;;;;;;5018777;28;20049;-80
2022/12/01 06:39:08;;;;;;;56.83;35.03;;;7.70;99.90;;;;;;5017433;28;20057;-79
2022/12/01 06:41:33;;;;;;;61.17;33.28;;;7.30;99.90;;;;;;5014372;28;20194;-79
2022/12/01 06:44:00;;;;;;;64.22;34.38;;;7.40;99.90;;;;;;5016688;28;20061;-82
2022/12/01 06:46:26;;;;;;;58.65;35.45;;;7.30;99.90;;;;;;5015039;28;20048;-80
2022/12/01 06:48:51;;;;;;;66.60;38.03;;;7.30;99.90;;;;;;5024059;28;20057;-79
2022/12/01 06:51:17;;;;;;;58.50;35.15;;;7.60;99.90;;;;;;5024749;28;20490;-80
2022/12/01 06:53:43;;;;;;;55.65;33.42;;;7.20;99.90;;;;;;5021515;28;20104;-79
2022/12/01 06:56:09;;;;;;;50.75;30.17;;;7.50;99.90;;;;;;5006209;28;20045;-80
2022/12/01 06:58:34;;;;;;;53.42;31.52;;;7.20;99.90;;;;;;5017940;28;20060;-80
2022/12/01 07:01:08;;;;;;;54.85;29.10;;;7.20;99.90;;;;;;5012015;28;20049;-80
2022/12/01 07:03:34;;;;;;;68.25;37.90;;;7.20;99.90;;;;;;5012881;28;20063;-79
2022/12/01 07:06:00;;;;;;;63.80;35.58;;;7.30;99.90;;;;;;5015487;28;20899;-78
2022/12/01 07:08:28;;;;;;;64.50;35.95;;;7.20;99.90;;;;;;5030655;28;20036;-79
2022/12/01 07:11:16;;;;;;;62.97;35.88;;;7.50;99.90;;;;;;5010566;28;20045;-80
2022/12/01 07:13:45;;;;;;;56.83;34.58;;;7.10;99.90;;;;;;5014529;28;20049;-79
2022/12/01 07:16:11;;;;;;;64.93;35.72;;;7.10;99.90;;;;;;5022591;28;20057;-79
2022/12/01 07:18:37;;;;;;;68.80;40.58;;;7.10;99.90;;;;;;5009364;28;20058;-79
2022/12/01 07:21:10;;;;;;;72.20;38.42;;;7.10;99.90;;;;;;5011906;28;20577;-80
2022/12/01 07:23:36;;;;;;;59.50;33.75;;;7.10;99.90;;;;;;5014070;28;20091;-80
2022/12/01 07:26:08;;;;;;;65.45;33.58;;;7.10;99.90;;;;;;5021180;28;20596;-79
2022/12/01 07:28:34;;;;;;;64.03;37.50;;;7.30;99.90;;;;;;5021802;28;20080;-80
2022/12/01 07:31:11;;;;;;;56.42;32.00;;;7.00;99.90;;;;;;5006349;28;20046;-79
2022/12/01 07:33:37;;;;;;;69.00;36.30;;;7.10;99.90;;;;;;5014300;28;20490;-79
2022/12/01 07:36:04;;;;;;;62.10;36.38;;;7.10;99.90;;;;;;5011332;28;20057;-80
2022/12/01 07:38:31;;;;;;;65.45;34.88;;;7.10;99.90;;;;;;5017139;28;20612;-80
2022/12/01 07:41:02;;;;;;;63.13;34.55;;;7.10;99.90;;;;;;5008227;28;20148;-80
2022/12/01 07:43:29;;;;;;;60.22;32.90;;;7.10;99.90;;;;;;5012966;28;20043;-79
2022/12/01 07:45:55;;;;;;;55.97;33.03;;;7.10;99.90;;;;;;5017749;28;20167;-79
2022/12/01 07:48:21;;;;;;;47.70;28.85;;;7.10;99.90;;;;;;5002022;28;20401;-79
2022/12/01 07:50:46;;;;;;;54.63;33.20;;;7.10;99.90;;;;;;5010976;28;20119;-80
2022/12/01 07:53:12;;;;;;;51.78;29.35;;;7.10;99.90;;;;;;5014646;28;20049;-80
2022/12/01 07:55:37;;;;;;;57.30;34.63;;;7.10;99.90;;;;;;5010798;28;20077;-79
2022/12/01 07:58:03;;;;;;;60.15;32.55;;;7.10;99.90;;;;;;5014903;28;20076;-80
2022/12/01 08:00:29;;;;;;;57.13;31.95;;;7.10;99.90;;;;;;5013385;28;20153;-79
2022/12/01 08:02:54;;;;;;;53.88;32.58;;;7.00;99.90;;;;;;5009383;28;20049;-80
2022/12/01 08:05:20;;;;;;;60.45;32.65;;;6.90;99.90;;;;;;5020795;28;20684;-81
2022/12/01 08:07:46;;;;;;;52.78;30.27;;;7.00;99.90;;;;;;5016369;28;20199;-78
2022/12/01 08:10:11;;;;;;;64.32;35.22;;;7.00;99.90;;;;;;5017248;28;20094;-80
2022/12/01 08:12:37;;;;;;;59.30;33.05;;;7.00;99.90;;;;;;5017029;28;20148;-79
2022/12/01 08:15:03;;;;;;;63.25;36.10;;;7.00;99.90;;;;;;5018311;28;20054;-79
2022/12/01 08:17:29;;;;;;;68.50;34.08;;;7.00;99.90;;;;;;5016110;28;20041;-79
2022/12/01 08:19:54;;;;;;;62.30;32.70;;;6.90;99.90;;;;;;5014969;28;20119;-79
2022/12/01 08:22:20;;;;;;;57.92;32.55;;;6.90;99.90;;;;;;5013391;28;20119;-79
2022/12/01 08:24:45;;;;;;;56.58;32.67;;;6.90;99.90;;;;;;5015342;28;20084;-79
2022/12/01 08:27:11;;;;;;;60.00;33.88;;;7.00;99.90;;;;;;5019210;28;20045;-79
2022/12/01 08:29:37;;;;;;;60.47;35.25;;;7.00;99.90;;;;;;5012808;28;20058;-80
2022/12/01 08:32:02;;;;;;;61.28;34.20;;;7.00;99.90;;;;;;5018848;28;20041;-80
2022/12/01 08:34:28;;;;;;;58.17;32.70;;;7.00;99.90;;;;;;5014055;28;20581;-79
2022/12/01 08:36:54;;;;;;;58.30;33.05;;;7.00;99.90;;;;;;5017435;28;20049;-79
2022/12/01 08:39:19;;;;;;;64.82;37.10;;;7.10;99.90;;;;;;5018707;28;20410;-80
2022/12/01 08:41:45;;;;;;;56.75;34.83;;;7.00;99.90;;;;;;5018202;28;20115;-80
2022/12/01 08:44:11;;;;;;;56.33;32.97;;;7.00;99.90;;;;;;5018810;28;20053;-80
2022/12/01 08:46:37;;;;;;;61.50;35.92;;;7.10;99.90;;;;;;5018394;28;20871;-80
2022/12/01 08:49:04;;;;;;;59.33;34.30;;;7.10;99.90;;;;;;5015947;28;20478;-79
2022/12/01 08:51:30;;;;;;;61.88;34.30;;;7.60;99.90;;;;;;5015200;28;20500;-79
2022/12/01 08:53:57;;;;;;;59.20;36.03;;;7.10;99.90;;;;;;5019311;28;20072;-79
2022/12/01 08:56:30;;;;;;;65.30;36.60;;;7.40;99.90;;;;;;5000882;28;20038;-80
2022/12/01 08:58:56;;;;;;;67.40;36.00;;;7.00;99.90;;;;;;5010102;28;20053;-80
2022/12/01 09:01:24;;;;;;;61.47;34.63;;;6.90;99.90;;;;;;5007124;28;20838;-80
2022/12/01 09:04:07;;;;;;;55.67;31.42;;;6.90;99.90;;;;;;5015724;28;20085;-80
2022/12/01 09:06:44;;;;;;;58.90;33.42;;;6.90;99.90;;;;;;5010290;28;20056;-79
2022/12/01 09:09:13;;;;;;;54.92;33.30;;;6.90;99.90;;;;;;5000009;28;20068;-80
2022/12/01 09:11:39;;;;;;;59.17;31.60;;;6.90;99.90;;;;;;5021081;28;20072;-79
2022/12/01 09:14:05;;;;;;;63.88;34.30;;;6.90;99.90;;;;;;5011899;28;20207;-80
2022/12/01 09:16:32;;;;;;;56.83;31.20;;;7.10;99.90;;;;;;5018369;28;20053;-83
2022/12/01 09:18:57;;;;;;;56.20;33.38;;;6.90;99.90;;;;;;5014291;28;20092;-79
2022/12/01 09:21:26;;;;;;;52.30;31.48;;;6.90;99.90;;;;;;5019789;28;20140;-79
2022/12/01 09:23:53;;;;;;;52.97;30.73;;;6.90;99.90;;;;;;5018818;28;20057;-78
2022/12/01 09:26:19;;;;;;;57.35;31.30;;;6.90;99.90;;;;;;5016807;28;20057;-80
2022/12/01 09:28:46;;;;;;;50.58;29.33;;;7.10;99.90;;;;;;5017060;28;20041;-80
2022/12/01 09:31:13;;;;;;;53.65;30.35;;;7.00;99.90;;;;;;5013794;28;20156;-79
2022/12/01 09:33:39;;;;;;;51.33;30.38;;;7.00;99.90;;;;;;5018949;28;20149;-79
2022/12/01 09:36:06;;;;;;;56.42;33.45;;;7.00;99.90;;;;;;5021506;28;20416;-79
2022/12/01 09:38:34;;;;;;;54.55;30.27;;;7.00;99.90;;;;;;5016271;28;20045;-80
2022/12/01 09:41:04;;;;;;;50.03;28.77;;;7.00;99.90;;;;;;5012695;28;20083;-79
2022/12/01 09:43:44;;;;;;;49.60;29.55;;;7.00;99.90;;;;;;5016365;28;20046;-79
2022/12/01 09:46:17;;;;;;;46.72;29.00;;;7.00;99.90;;;;;;5021426;28;20052;-80
2022/12/01 09:48:45;;;;;;;50.38;30.27;;;7.00;99.90;;;;;;5020600;28;20041;-81
2022/12/01 09:51:16;;;;;;;44.08;26.20;;;7.10;99.90;;;;;;5015618;28;20049;-80
2022/12/01 09:53:42;;;;;;;48.88;29.70;;;7.10;99.90;;;;;;5018547;28;20556;-80
2022/12/01 09:56:26;;;;;;;48.85;28.38;;;7.30;99.90;;;;;;5023792;28;20854;-80
2022/12/01 09:58:57;;;;;;;50.47;27.48;;;7.20;99.90;;;;;;5022731;28;20096;-80
2022/12/01 10:01:35;;;;;;;43.20;24.77;;;7.30;99.90;;;;;;5027273;28;20490;-80
2022/12/01 10:04:38;;;;;;;57.38;30.05;;;7.40;99.90;;;;;;5019668;28;20056;-80
2022/12/01 10:07:11;;;;;;;47.70;27.67;;;7.50;99.90;;;;;;5027359;28;20124;-80
2022/12/01 10:09:39;;;;;;;;;;;7.50;99.90;;;;;;5015917;28;20094;-78
2022/12/01 10:12:19;;;;;;;58.83;32.47;;;7.50;99.90;;;;;;5020965;28;20394;-80
2022/12/01 10:14:46;;;;;;;42.75;27.23;;;7.50;99.90;;;;;;5015882;28;20087;-80
2022/12/01 10:17:38;;;;;;;48.33;26.48;;;7.60;99.90;;;;;;5018418;28;20044;-79
2022/12/01 10:20:34;;;;;;;55.17;30.92;;;7.50;99.90;;;;;;5017655;28;20049;-79
2022/12/01 10:23:24;;;;;;;48.85;30.05;;;7.50;99.90;;;;;;5016098;28;20061;-79
2022/12/01 10:25:55;;;;;;;55.53;30.52;;;7.50;99.90;;;;;;5016426;28;20057;-79
2022/12/01 10:28:43;;;;;;;54.25;29.67;;;7.50;99.90;;;;;;5017803;28;20116;-79
2022/12/01 10:31:19;;;;;;;42.83;27.02;;;7.50;99.90;;;;;;5012703;28;20041;-79
2022/12/01 10:33:49;;;;;;;49.88;30.15;;;7.50;99.90;;;;;;5027225;28;20045;-78
2022/12/01 10:36:15;;;;;;;44.40;27.85;;;7.80;99.90;;;;;;5019689;28;20053;-79
2022/12/01 10:38:41;;;;;;;49.15;29.88;;;7.50;99.90;;;;;;5014667;28;20122;-80
2022/12/01 10:41:12;;;;;;;46.80;29.27;;;7.40;99.90;;;;;;5017789;28;20049;-79
2022/12/01 10:43:48;;;;;;;49.80;28.67;;;7.50;99.90;;;;;;5018405;28;20079;-79
2022/12/01 10:46:24;;;;;;;42.42;28.20;;;7.50;99.90;;;;;;5016772;28;20033;-79
2022/12/01 10:48:59;;;;;;;47.53;30.10;;;7.50;99.90;;;;;;5016500;28;20057;-79
2022/12/01 10:51:26;;;;;;;46.78;25.88;;;7.50;99.90;;;;;;5016489;28;20041;-79
2022/12/01 10:54:06;;;;;;;46.65;27.60;;;7.60;99.90;;;;;;5010836;28;20133;-79
2022/12/01 10:56:33;;;;;;;46.35;27.55;;;7.50;99.90;;;;;;5024718;28;20045;-79
2022/12/01 10:59:03;;;;;;;45.72;27.40;;;7.50;99.90;;;;;;5009399;28;20060;-79
2022/12/01 11:01:34;;;;;;;47.13;26.50;;;7.50;99.90;;;;;;5017284;28;20085;-79
2022/12/01 11:04:24;;;;;;;44.70;27.60;;;7.50;99.90;;;;;;5014155;28;20057;-79
2022/12/01 11:06:50;;;;;;;48.00;26.70;;;7.50;99.90;;;;;;5016363;28;20064;-79
2022/12/01 11:09:24;;;;;;;44.50;28.65;;;7.40;99.90;;;;;;5019459;28;20772;-78
2022/12/01 11:12:12;;;;;;;;;;;7.50;99.90;;;;;;5020600;28;20053;-79
2022/12/01 11:14:46;;;;;;;47.78;27.73;;;7.50;99.90;;;;;;5015419;28;19986;-79
2022/12/01 11:17:34;;;;;;;43.63;27.25;;;7.40;99.90;;;;;;5020469;28;20041;-79
2022/12/01 11:20:31;;;;;;;39.78;24.63;;;7.40;99.90;;;;;;5012355;28;20538;-79
2022/12/01 11:23:09;;;;;;;51.15;28.95;;;7.30;99.90;;;;;;5015767;28;20060;-79
2022/12/01 11:25:35;;;;;;;44.15;23.75;;;7.30;99.90;;;;;;5009015;28;20458;-79
2022/12/01 11:28:02;;;;;;;50.80;26.83;;;7.30;99.90;;;;;;5016930;28;20783;-78
2022/12/01 11:30:30;;;;;;;53.08;27.10;;;7.40;99.90;;;;;;5010908;28;20046;-79
2022/12/01 11:32:59;;;;;;;45.13;26.23;;;7.40;99.90;;;;;;5015844;28;20057;-78
2022/12/01 11:35:35;;;;;;;44.53;26.10;;;7.50;99.90;;;;;;5015858;28;20049;-79
2022/12/01 11:38:02;;;;;;;40.22;25.25;;;7.50;99.90;;;;;;5015956;28;21260;-78
2022/12/01 11:40:44;;;;;;;40.70;25.48;;;7.50;99.90;;;;;;5017862;28;20049;-79
2022/12/01 11:43:25;;;;;;;40.17;26.48;;;7.50;99.90;;;;;;5021027;28;20126;-79
2022/12/01 11:45:52;;;;;;;47.88;26.95;;;7.60;99.90;;;;;;5013832;28;20103;-79
2022/12/01 11:48:26;;;;;;;42.05;25.77;;;7.70;99.90;;;;;;5015431;28;20084;-79
2022/12/01 11:51:06;;;;;;;47.10;27.33;;;7.60;99.90;;;;;;5017344;28;20061;-79
2022/12/01 11:53:38;;;;;;;36.17;24.48;;;7.50;99.90;;;;;;5017222;28;20045;-79
2022/12/01 11:56:24;;;;;;;44.33;25.95;;;7.50;99.90;;;;;;5018951;28;20053;-79
2022/12/01 11:59:05;;;;;;;45.60;24.80;;;7.50;99.90;;;;;;5015119;28;20136;-79
2022/12/01 12:01:55;;;;;;;44.58;25.90;;;7.40;99.90;;;;;;5011456;28;20054;-80
2022/12/01 12:04:55;;;;;;;44.55;25.38;;;7.30;99.90;;;;;;5015315;28;20091;-79
2022/12/01 12:07:38;;;;;;;45.13;28.85;;;7.30;99.90;;;;;;5013210;28;20046;-80
2022/12/01 12:10:22;;;;;;;42.75;26.75;;;7.30;99.90;;;;;;5020974;28;20523;-79
2022/12/01 12:13:06;;;;;;;;;;;7.30;99.90;;;;;;5015700;28;20167;-79
2022/12/01 12:16:01;;;;;;;42.55;26.83;;;7.20;99.90;;;;;;5031677;28;20443;-80
2022/12/01 12:19:17;;;;;;;41.25;26.88;;;7.20;99.90;;;;;;5029050;28;20088;-78
2022/12/01 12:21:52;;;;;;;46.88;28.23;;;7.30;99.90;;;;;;5001831;28;20091;-80
2022/12/01 12:24:22;;;;;;;46.58;28.80;;;7.20;99.90;;;;;;5017725;28;20057;-78
2022/12/01 12:26:57;;;;;;;41.40;26.25;;;7.20;99.90;;;;;;5020650;28;20391;-78
2022/12/01 12:29:52;;;;;;;39.13;26.55;;;7.20;99.90;;;;;;5026541;28;20130;-78
2022/12/01 12:32:39;;;;;;;47.05;25.55;;;7.30;99.90;;;;;;4991996;28;20057;-79
2022/12/01 12:35:29;;;;;;;34.67;24.52;;;7.20;99.90;;;;;;5045239;28;20083;-78
2022/12/01 12:38:02;;;;;;;44.70;25.65;;;7.30;99.90;;;;;;5027167;28;20060;-79
2022/12/01 12:40:28;;;;;;;39.50;26.25;;;7.30;99.90;;;;;;5017354;28;20041;-79
2022/12/01 12:43:12;;;;;;;43.88;25.63;;;7.30;99.90;;;;;;5018707;28;20806;-79
2022/12/01 12:45:46;;;;;;;41.95;25.58;;;7.30;99.90;;;;;;5022813;28;20064;-79
2022/12/01 12:48:56;;;;;;;43.50;26.77;;;7.30;99.90;;;;;;5018674;28;20061;-80
2022/12/01 12:51:43;;;;;;;42.25;26.15;;;7.30;99.90;;;;;;5013138;28;20932;-79
2022/12/01 12:54:16;;;;;;;43.33;26.42;;;7.30;99.90;;;;;;5018082;28;20046;-79
2022/12/01 12:56:46;;;;;;;39.45;21.75;;;7.40;99.90;;;;;;5016782;28;20180;-79
2022/12/01 12:59:22;;;;;;;38.38;23.55;;;7.80;99.90;;;;;;5018130;28;20056;-79
2022/12/01 13:02:11;;;;;;;42.67;23.50;;;7.30;99.90;;;;;;5018479;28;20053;-80